createdAt,value
2022-11-12T00:01:22.603Z,3.10
2022-11-12T00:03:51.023Z,3.17
2022-11-12T00:06:19.418Z,3.30
2022-11-12T00:08:47.688Z,3.40
2022-11-12T00:11:17.521Z,2.80
2022-11-12T00:13:45.916Z,2.87
2022-11-12T00:16:14.272Z,3.13
2022-11-12T00:18:42.623Z,3.10
2022-11-12T00:21:10.980Z,3.03
2022-11-12T00:23:39.400Z,3.60
2022-11-12T00:26:07.652Z,2.97
2022-11-12T00:28:38.476Z,2.90
2022-11-12T00:31:12.622Z,2.97
2022-11-12T00:33:42.876Z,3.07
2022-11-12T00:36:12.375Z,3.40
2022-11-12T00:38:40.904Z,2.83
2022-11-12T00:41:09.356Z,3.00
2022-11-12T00:43:39.096Z,3.10
2022-11-12T00:46:07.401Z,2.77
2022-11-12T00:48:35.659Z,2.43
2022-11-12T00:51:05.315Z,2.53
2022-11-12T00:53:34.193Z,2.77
2022-11-12T00:56:03.658Z,3.23
2022-11-12T00:58:32.531Z,2.57
2022-11-12T01:01:07.364Z,3.17
2022-11-12T01:03:35.720Z,3.07
2022-11-12T01:06:05.312Z,3.00
2022-11-12T01:08:33.765Z,2.80
2022-11-12T01:11:11.026Z,2.67
2022-11-12T01:13:43.992Z,2.97
2022-11-12T01:16:16.359Z,3.10
2022-11-12T01:18:45.454Z,3.33
2022-11-12T01:21:14.540Z,2.73
2022-11-12T01:23:43.554Z,3.30
2022-11-12T01:26:14.884Z,2.53
2022-11-12T01:28:44.442Z,2.97
2022-11-12T01:31:16.930Z,2.60
2022-11-12T01:33:47.208Z,2.60
2022-11-12T01:36:16.999Z,2.17
2022-11-12T01:38:46.465Z,2.53
2022-11-12T01:41:17.048Z,2.03
2022-11-12T01:43:45.384Z,2.03
2022-11-12T01:46:21.484Z,2.23
2022-11-12T01:48:54.248Z,2.20
2022-11-12T01:51:24.814Z,2.00
2022-11-12T01:53:57.471Z,1.77
2022-11-12T01:56:28.657Z,2.30
2022-11-12T01:59:01.189Z,2.07
2022-11-12T02:01:31.579Z,2.47
2022-11-12T02:04:00.120Z,1.90
2022-11-12T02:06:28.474Z,2.83
2022-11-12T02:08:57.785Z,2.00
2022-11-12T02:11:26.172Z,2.33
2022-11-12T02:14:01.507Z,1.90
2022-11-12T02:16:34.804Z,1.90
2022-11-12T02:19:03.901Z,2.03
2022-11-12T02:21:34.705Z,2.33
2022-11-12T02:24:05.967Z,2.30
2022-11-12T02:26:38.207Z,2.27
2022-11-12T02:29:06.434Z,2.37
2022-11-12T02:31:35.069Z,1.97
2022-11-12T02:34:03.887Z,2.03
2022-11-12T02:36:33.650Z,1.93
2022-11-12T02:39:01.920Z,2.27
2022-11-12T02:41:30.310Z,2.00
2022-11-12T02:43:58.632Z,1.80
2022-11-12T02:46:26.911Z,1.90
2022-11-12T02:48:55.213Z,2.27
2022-11-12T02:51:23.490Z,2.57
2022-11-12T02:53:53.169Z,2.40
2022-11-12T02:56:21.498Z,2.17
2022-11-12T02:58:49.762Z,2.17
2022-11-12T03:01:18.136Z,1.80
2022-11-12T03:03:46.527Z,2.17
2022-11-12T03:06:14.801Z,1.97
2022-11-12T03:08:43.177Z,2.10
2022-11-12T03:11:14.888Z,1.90
2022-11-12T03:13:44.007Z,2.20
2022-11-12T03:16:12.328Z,2.60
2022-11-12T03:18:40.561Z,2.57
2022-11-12T03:21:08.955Z,1.90
2022-11-12T03:23:37.203Z,2.07
2022-11-12T03:26:06.383Z,2.80
2022-11-12T03:28:36.102Z,2.53
2022-11-12T03:31:04.384Z,2.67
2022-11-12T03:33:32.764Z,2.23
2022-11-12T03:36:01.015Z,2.13
2022-11-12T03:38:29.532Z,2.43
2022-11-12T03:40:58.013Z,3.10
2022-11-12T03:43:26.287Z,2.67
2022-11-12T03:45:56.010Z,2.37
2022-11-12T03:48:24.562Z,2.23
2022-11-12T03:50:53.175Z,3.03
2022-11-12T03:53:21.470Z,1.93
2022-11-12T03:55:49.738Z,1.87
2022-11-12T03:58:18.062Z,2.37
2022-11-12T04:00:46.487Z,2.33
2022-11-12T04:03:16.222Z,2.40
2022-11-12T04:06:02.053Z,2.00
2022-11-12T04:08:39.140Z,2.47
2022-11-12T04:11:10.477Z,1.97
2022-11-12T04:13:39.703Z,2.00
2022-11-12T04:16:28.162Z,1.93
2022-11-12T04:19:16.853Z,2.13
2022-11-12T04:21:52.327Z,2.40
2022-11-12T04:24:39.547Z,2.13
2022-11-12T04:27:09.100Z,2.10
2022-11-12T04:29:54.865Z,2.13
2022-11-12T04:32:23.323Z,2.03
2022-11-12T04:34:54.119Z,2.23
2022-11-12T04:37:23.719Z,2.53
2022-11-12T04:39:52.166Z,2.10
2022-11-12T04:42:38.491Z,2.43
2022-11-12T04:45:09.652Z,2.90
2022-11-12T04:47:39.946Z,2.60
2022-11-12T04:50:15.992Z,2.30
2022-11-12T04:52:44.361Z,2.10
2022-11-12T04:55:12.638Z,2.63
2022-11-12T04:57:41.465Z,2.20
2022-11-12T05:00:12.231Z,2.37
2022-11-12T05:02:40.482Z,2.07
2022-11-12T05:05:11.163Z,2.37
2022-11-12T05:07:39.360Z,2.33
2022-11-12T05:10:08.697Z,2.37
2022-11-12T05:12:37.451Z,2.23
2022-11-12T05:15:06.283Z,2.70
2022-11-12T05:17:34.560Z,2.53
2022-11-12T05:20:02.946Z,2.50
2022-11-12T05:22:43.239Z,2.23
2022-11-12T05:25:14.164Z,2.27
2022-11-12T05:27:42.630Z,1.87
2022-11-12T05:30:12.096Z,2.30
2022-11-12T05:32:40.436Z,4.00
2022-11-12T05:35:09.230Z,2.50
2022-11-12T05:37:38.939Z,2.80
2022-11-12T05:40:08.545Z,2.73
2022-11-12T05:42:36.902Z,2.60
2022-11-12T05:45:06.401Z,2.80
2022-11-12T05:47:34.646Z,3.23
2022-11-12T05:50:02.947Z,2.67
2022-11-12T05:52:31.346Z,2.77
2022-11-12T05:55:01.039Z,3.40
2022-11-12T05:57:29.417Z,3.00
2022-11-12T05:59:57.638Z,3.33
2022-11-12T06:02:25.941Z,3.07
2022-11-12T06:04:54.257Z,2.73
2022-11-12T06:07:22.564Z,2.73
2022-11-12T06:09:51.132Z,2.70
2022-11-12T06:12:20.748Z,2.77
2022-11-12T06:14:49.045Z,2.77
2022-11-12T06:17:17.544Z,3.07
2022-11-12T06:19:45.827Z,3.23
2022-11-12T06:22:14.200Z,2.70
2022-11-12T06:24:42.548Z,2.70
2022-11-12T06:27:10.782Z,3.30
2022-11-12T06:29:40.515Z,2.97
2022-11-12T06:32:08.735Z,3.10
2022-11-12T06:34:37.074Z,3.30
2022-11-12T06:37:05.313Z,2.30
2022-11-12T06:39:33.627Z,2.87
2022-11-12T06:42:02.192Z,3.57
2022-11-12T06:44:30.467Z,3.20
2022-11-12T06:47:00.236Z,4.20
2022-11-12T06:49:28.499Z,3.20
2022-11-12T06:51:56.859Z,2.93
2022-11-12T06:54:25.255Z,3.03
2022-11-12T06:56:53.676Z,4.40
2022-11-12T06:59:22.022Z,3.60
2022-11-12T07:01:50.457Z,3.53
2022-11-12T07:04:20.567Z,3.90
2022-11-12T07:06:49.019Z,3.70
2022-11-12T07:09:17.299Z,3.27
2022-11-12T07:11:45.723Z,3.17
2022-11-12T07:14:14.124Z,3.23
2022-11-12T07:16:42.487Z,3.13
2022-11-12T07:19:10.808Z,4.07
2022-11-12T07:21:40.462Z,3.73
2022-11-12T07:24:09.717Z,3.50
2022-11-12T07:26:40.745Z,3.33
2022-11-12T07:29:12.738Z,3.87
2022-11-12T07:31:46.546Z,4.30
2022-11-12T07:34:14.908Z,3.60
2022-11-12T07:36:44.577Z,4.27
2022-11-12T07:39:13.463Z,4.10
2022-11-12T07:41:41.672Z,4.03
2022-11-12T07:44:09.916Z,3.80
2022-11-12T07:46:38.524Z,3.83
2022-11-12T07:49:06.966Z,3.93
2022-11-12T07:51:35.305Z,3.80
2022-11-12T07:54:05.432Z,4.03
2022-11-12T07:56:33.849Z,4.07
2022-11-12T07:59:02.340Z,3.40
2022-11-12T08:01:32.927Z,3.70
2022-11-12T08:04:02.495Z,3.53
2022-11-12T08:06:31.991Z,3.67
2022-11-12T08:09:02.275Z,3.50
2022-11-12T08:11:32.240Z,4.10
2022-11-12T08:14:00.587Z,3.10
2022-11-12T08:16:28.892Z,3.63
2022-11-12T08:18:57.217Z,3.97
2022-11-12T08:21:26.286Z,3.67
2022-11-12T08:23:54.703Z,3.77
2022-11-12T08:26:23.030Z,3.90
2022-11-12T08:28:52.693Z,4.03
2022-11-12T08:31:22.931Z,4.32
2022-11-12T08:33:51.504Z,4.60
2022-11-12T08:36:19.988Z,4.13
2022-11-12T08:38:48.328Z,4.13
2022-11-12T08:41:17.781Z,4.70
2022-11-12T08:43:46.087Z,3.90
2022-11-12T08:46:15.710Z,4.40
2022-11-12T08:48:44.075Z,4.72
2022-11-12T08:51:12.346Z,5.00
2022-11-12T08:53:40.991Z,4.80
2022-11-12T08:56:09.251Z,5.50
2022-11-12T08:58:37.543Z,5.07
2022-11-12T09:01:07.635Z,5.77
2022-11-12T09:03:37.931Z,6.00
2022-11-12T09:06:07.218Z,6.07
2022-11-12T09:08:37.341Z,6.17
2022-11-12T09:11:05.999Z,6.43
2022-11-12T09:13:35.353Z,5.70
2022-11-12T09:16:05.272Z,6.40
2022-11-12T09:18:34.402Z,5.70
2022-11-12T09:21:06.647Z,6.03
2022-11-12T09:23:36.471Z,6.13
2022-11-12T09:26:05.012Z,5.85
2022-11-12T09:28:33.988Z,5.70
2022-11-12T09:31:03.206Z,6.13
2022-11-12T09:33:34.398Z,5.75
2022-11-12T09:36:04.970Z,6.43
2022-11-12T09:38:33.321Z,7.47
2022-11-12T09:41:25.076Z,5.83
2022-11-12T09:43:55.381Z,6.30
2022-11-12T09:46:36.831Z,4.63
2022-11-12T09:49:12.596Z,4.90
2022-11-12T09:51:47.880Z,9.60
2022-11-12T09:54:24.039Z,6.85
2022-11-12T09:56:53.583Z,5.93
2022-11-12T09:59:23.901Z,5.70
2022-11-12T10:01:59.854Z,6.07
2022-11-12T10:05:00.222Z,5.80
2022-11-12T10:07:42.385Z,5.37
2022-11-12T10:10:16.286Z,5.13
2022-11-12T10:13:00.411Z,9.75
2022-11-12T10:16:09.388Z,10.87
2022-11-12T10:18:52.218Z,4.80
2022-11-12T10:21:29.752Z,4.73
2022-11-12T10:24:01.369Z,3.77
2022-11-12T10:26:31.732Z,4.40
2022-11-12T10:29:08.791Z,3.50
2022-11-12T10:31:37.042Z,3.80
2022-11-12T10:34:17.775Z,3.40
2022-11-12T10:36:50.234Z,3.58
2022-11-12T10:39:37.990Z,3.67
2022-11-12T10:42:10.301Z,3.65
2022-11-12T10:44:43.376Z,3.65
2022-11-12T10:47:25.875Z,3.63
2022-11-12T10:50:16.567Z,3.72
2022-11-12T10:52:56.644Z,3.92
2022-11-12T10:55:29.006Z,4.47
2022-11-12T10:58:06.746Z,3.55
2022-11-12T11:00:35.466Z,4.03
2022-11-12T11:03:07.154Z,3.78
2022-11-12T11:05:37.848Z,3.15
2022-11-12T11:08:07.243Z,3.97
2022-11-12T11:10:38.469Z,3.65
2022-11-12T11:13:21.834Z,19.98
2022-11-12T11:16:01.107Z,24.48
2022-11-12T11:18:30.570Z,5.22
2022-11-12T11:21:07.692Z,3.97
2022-11-12T11:23:47.159Z,5.05
2022-11-12T11:26:31.022Z,4.57
2022-11-12T11:29:11.997Z,4.35
2022-11-12T11:31:47.262Z,3.85
2022-11-12T11:34:28.737Z,4.43
2022-11-12T11:37:04.947Z,3.53
2022-11-12T11:39:42.116Z,4.25
2022-11-12T11:42:29.264Z,4.28
2022-11-12T11:45:04.423Z,4.78
2022-11-12T11:47:59.808Z,4.63
2022-11-12T11:50:31.071Z,4.35
2022-11-12T11:53:14.722Z,5.25
2022-11-12T11:55:52.767Z,5.57
2022-11-12T11:58:40.135Z,6.07
2022-11-12T12:01:20.511Z,4.60
2022-11-12T12:04:08.199Z,4.50
2022-11-12T12:06:42.191Z,3.83
2022-11-12T12:09:24.310Z,4.38
2022-11-12T12:11:57.128Z,4.72
2022-11-12T12:14:41.920Z,4.25
2022-11-12T12:17:20.489Z,5.22
2022-11-12T12:20:00.512Z,3.83
2022-11-12T12:22:37.320Z,4.68
2022-11-12T12:25:13.752Z,4.63
2022-11-12T12:27:52.049Z,5.20
2022-11-12T12:30:23.686Z,5.78
2022-11-12T12:32:57.177Z,4.97
2022-11-12T12:35:30.837Z,4.90
2022-11-12T12:38:08.012Z,6.28
2022-11-12T12:40:40.738Z,4.85
2022-11-12T12:43:15.509Z,4.50
2022-11-12T12:45:46.969Z,5.50
2022-11-12T12:48:19.218Z,5.60
2022-11-12T12:50:48.808Z,4.45
2022-11-12T12:53:19.241Z,4.72
2022-11-12T12:55:49.532Z,4.20
2022-11-12T12:58:20.706Z,4.07
2022-11-12T13:00:52.514Z,3.45
2022-11-12T13:03:47.613Z,4.20
2022-11-12T13:06:23.010Z,3.60
2022-11-12T13:08:53.798Z,3.80
2022-11-12T13:12:07.926Z,4.63
2022-11-12T13:15:09.125Z,4.00
2022-11-12T13:17:47.787Z,3.88
2022-11-12T13:20:38.635Z,4.40
2022-11-12T13:23:13.092Z,3.70
2022-11-12T13:25:41.465Z,4.72
2022-11-12T13:28:14.357Z,4.70
2022-11-12T13:31:00.767Z,5.03
2022-11-12T13:33:33.992Z,5.57
2022-11-12T13:36:28.123Z,5.38
2022-11-12T13:39:12.308Z,4.22
2022-11-12T13:41:58.249Z,4.13
2022-11-12T13:44:27.991Z,4.40
2022-11-12T13:46:57.215Z,4.30
2022-11-12T13:49:28.376Z,3.60
2022-11-12T13:51:57.267Z,6.80
2022-11-12T13:54:34.239Z,4.32
2022-11-12T13:57:28.952Z,4.17
2022-11-12T14:00:23.964Z,19.08
2022-11-12T14:02:55.725Z,18.93
2022-11-12T14:05:27.881Z,5.55
2022-11-12T14:08:11.432Z,12.15
2022-11-12T14:10:47.423Z,9.40
2022-11-12T14:13:36.226Z,4.05
2022-11-12T14:16:18.739Z,4.32
2022-11-12T14:19:07.572Z,3.58
2022-11-12T14:21:37.707Z,4.28
2022-11-12T14:24:06.879Z,3.67
2022-11-12T14:26:36.970Z,4.45
2022-11-12T14:29:06.146Z,4.10
2022-11-12T14:31:34.679Z,4.47
2022-11-12T14:34:22.122Z,4.50
2022-11-12T14:36:55.959Z,4.63
2022-11-12T14:39:25.540Z,4.80
2022-11-12T14:41:54.367Z,4.57
2022-11-12T14:44:25.159Z,4.97
2022-11-12T14:46:55.317Z,3.87
2022-11-12T14:49:29.300Z,4.65
2022-11-12T14:52:07.431Z,4.20
2022-11-12T14:54:38.097Z,4.30
2022-11-12T14:57:06.766Z,4.45
2022-11-12T14:59:35.560Z,4.63
2022-11-12T15:02:30.177Z,4.78
2022-11-12T15:05:02.347Z,4.70
2022-11-12T15:07:33.889Z,4.55
2022-11-12T15:10:29.966Z,4.40
2022-11-12T15:13:04.480Z,5.17
2022-11-12T15:15:34.300Z,5.33
2022-11-12T15:18:05.531Z,6.63
2022-11-12T15:20:34.041Z,6.87
2022-11-12T15:23:03.938Z,4.87
2022-11-12T15:25:33.082Z,4.73
2022-11-12T15:28:15.424Z,4.93
2022-11-12T15:30:43.971Z,5.00
2022-11-12T15:33:19.376Z,5.77
2022-11-12T15:35:56.525Z,19.90
2022-11-12T15:38:31.745Z,9.87
2022-11-12T15:41:01.303Z,5.87
2022-11-12T15:43:33.337Z,5.77
2022-11-12T15:46:01.768Z,5.43
2022-11-12T15:48:30.322Z,6.57
2022-11-12T15:50:59.115Z,6.37
2022-11-12T15:53:30.653Z,5.80
2022-11-12T15:55:59.165Z,5.30
2022-11-12T15:58:33.387Z,10.30
2022-11-12T16:01:02.221Z,7.10
2022-11-12T16:03:31.468Z,5.33
2022-11-12T16:06:04.093Z,6.13
2022-11-12T16:08:38.299Z,6.00
2022-11-12T16:11:27.036Z,6.00
2022-11-12T16:13:55.404Z,5.70
2022-11-12T16:16:23.796Z,6.30
2022-11-12T16:18:52.185Z,6.33
2022-11-12T16:21:21.080Z,6.87
2022-11-12T16:23:50.928Z,7.03
2022-11-12T16:26:25.188Z,10.83
2022-11-12T16:28:53.832Z,7.37
2022-11-12T16:31:22.637Z,7.27
2022-11-12T16:33:50.912Z,6.43
2022-11-12T16:36:19.533Z,6.23
2022-11-12T16:38:48.351Z,8.07
2022-11-12T16:41:18.307Z,6.30
2022-11-12T16:43:46.681Z,7.20
2022-11-12T16:46:20.152Z,6.33
2022-11-12T16:48:48.727Z,7.43
2022-11-12T16:51:19.765Z,6.67
2022-11-12T16:53:48.683Z,5.93
2022-11-12T16:56:20.809Z,6.17
2022-11-12T16:58:49.933Z,6.93
2022-11-12T17:01:25.574Z,6.27
2022-11-12T17:03:55.585Z,8.20
2022-11-12T17:06:25.354Z,7.10
2022-11-12T17:08:55.863Z,8.43
2022-11-12T17:11:25.593Z,8.27
2022-11-12T17:13:59.179Z,7.83
2022-11-12T17:16:27.503Z,7.33
2022-11-12T17:18:56.302Z,7.90
2022-11-12T17:21:24.764Z,7.77
2022-11-12T17:23:53.187Z,8.57
2022-11-12T17:26:22.242Z,8.10
2022-11-12T17:28:58.567Z,9.53
2022-11-12T17:31:29.556Z,8.80
2022-11-12T17:33:57.875Z,9.80
2022-11-12T17:36:28.119Z,9.63
2022-11-12T17:38:57.065Z,8.83
2022-11-12T17:41:26.119Z,9.07
2022-11-12T17:43:57.494Z,9.27
2022-11-12T17:46:26.361Z,22.23
2022-11-12T17:48:55.481Z,9.33
2022-11-12T17:51:26.985Z,9.83
2022-11-12T17:53:55.768Z,9.63
2022-11-12T17:56:25.452Z,9.67
2022-11-12T17:58:54.401Z,9.83
2022-11-12T18:01:25.594Z,9.03
2022-11-12T18:03:55.813Z,8.80
2022-11-12T18:06:25.971Z,9.67
2022-11-12T18:08:56.059Z,8.93
2022-11-12T18:11:25.167Z,8.70
2022-11-12T18:13:53.619Z,8.50
2022-11-12T18:16:25.743Z,8.33
2022-11-12T18:18:55.889Z,8.70
2022-11-12T18:21:25.049Z,8.20
2022-11-12T18:23:53.364Z,8.57
2022-11-12T18:26:22.051Z,8.80
2022-11-12T18:28:52.705Z,9.10
2022-11-12T18:31:21.470Z,15.83
2022-11-12T18:33:51.398Z,10.63
2022-11-12T18:36:21.288Z,9.17
2022-11-12T18:38:50.843Z,9.47
2022-11-12T18:41:21.139Z,9.60
2022-11-12T18:43:49.526Z,9.47
2022-11-12T18:46:17.846Z,8.63
2022-11-12T18:48:47.414Z,9.57
2022-11-12T18:51:19.282Z,8.63
2022-11-12T18:53:48.050Z,9.20
2022-11-12T18:56:18.396Z,9.77
2022-11-12T18:58:47.617Z,9.13
2022-11-12T19:01:17.626Z,9.03
2022-11-12T19:03:46.081Z,9.43
2022-11-12T19:06:16.819Z,9.20
2022-11-12T19:08:45.363Z,10.13
2022-11-12T19:11:16.471Z,10.07
2022-11-12T19:13:44.787Z,10.03
2022-11-12T19:16:17.022Z,11.00
2022-11-12T19:18:46.387Z,9.93
2022-11-12T19:21:17.623Z,10.00
2022-11-12T19:23:51.323Z,9.60
2022-11-12T19:26:23.108Z,10.90
2022-11-12T19:28:51.519Z,10.17
2022-11-12T19:31:21.539Z,11.23
2022-11-12T19:33:50.612Z,11.20
2022-11-12T19:36:22.456Z,11.70
2022-11-12T19:38:56.168Z,10.83
2022-11-12T19:41:24.832Z,12.00
2022-11-12T19:43:53.734Z,12.07
2022-11-12T19:46:22.135Z,12.30
2022-11-12T19:48:51.216Z,11.60
2022-11-12T19:51:20.969Z,11.77
2022-11-12T19:53:49.365Z,12.20
2022-11-12T19:56:18.909Z,11.87
2022-11-12T19:58:48.283Z,13.10
2022-11-12T20:01:19.115Z,12.43
2022-11-12T20:03:47.906Z,11.60
2022-11-12T20:06:19.834Z,15.73
2022-11-12T20:08:49.667Z,13.63
2022-11-12T20:11:18.957Z,13.23
2022-11-12T20:13:47.888Z,13.07
2022-11-12T20:16:23.871Z,12.87
2022-11-12T20:18:55.564Z,12.03
2022-11-12T20:21:24.015Z,11.37
2022-11-12T20:23:53.702Z,13.13
2022-11-12T20:26:22.164Z,11.67
2022-11-12T20:28:50.456Z,11.43
2022-11-12T20:31:21.089Z,12.60
2022-11-12T20:33:50.326Z,12.10
2022-11-12T20:36:21.213Z,12.20
2022-11-12T20:38:50.956Z,12.30
2022-11-12T20:41:22.351Z,11.87
2022-11-12T20:43:54.320Z,11.97
2022-11-12T20:46:23.073Z,11.63
2022-11-12T20:48:51.634Z,11.80
2022-11-12T20:51:24.149Z,11.80
2022-11-12T20:54:01.749Z,11.47
2022-11-12T20:56:38.741Z,11.50
2022-11-12T20:59:07.211Z,12.20
2022-11-12T21:01:35.629Z,11.70
2022-11-12T21:04:04.328Z,11.43
2022-11-12T21:06:32.623Z,11.60
2022-11-12T21:09:01.299Z,12.70
2022-11-12T21:11:31.277Z,12.87
2022-11-12T21:14:01.264Z,12.30
2022-11-12T21:16:29.757Z,11.80
2022-11-12T21:19:01.539Z,11.40
2022-11-12T21:21:31.631Z,12.17
2022-11-12T21:24:06.823Z,13.27
2022-11-12T21:26:42.755Z,11.40
2022-11-12T21:29:12.748Z,12.37
2022-11-12T21:31:42.808Z,11.37
2022-11-12T21:34:11.809Z,11.87
2022-11-12T21:36:40.179Z,11.73
2022-11-12T21:39:10.288Z,10.87
2022-11-12T21:41:40.248Z,10.70
2022-11-12T21:44:08.960Z,11.97
2022-11-12T21:46:37.883Z,11.47
2022-11-12T21:49:06.268Z,11.47
2022-11-12T21:51:35.090Z,10.93
2022-11-12T21:54:05.371Z,11.37
2022-11-12T21:56:34.732Z,11.83
2022-11-12T21:59:04.796Z,11.97
2022-11-12T22:01:34.926Z,10.73
2022-11-12T22:04:07.365Z,10.87
2022-11-12T22:06:38.770Z,9.90
2022-11-12T22:09:07.708Z,11.10
2022-11-12T22:11:36.215Z,10.97
2022-11-12T22:14:06.220Z,11.77
2022-11-12T22:16:34.753Z,10.47
2022-11-12T22:19:03.131Z,11.67
2022-11-12T22:21:39.473Z,11.13
2022-11-12T22:24:09.302Z,10.93
2022-11-12T22:26:38.033Z,12.07
2022-11-12T22:29:07.863Z,11.60
2022-11-12T22:31:36.527Z,11.87
2022-11-12T22:34:04.928Z,11.17
2022-11-12T22:36:35.925Z,11.83
2022-11-12T22:39:08.625Z,9.80
2022-11-12T22:41:38.432Z,10.97
2022-11-12T22:44:08.229Z,10.77
2022-11-12T22:46:37.672Z,10.47
2022-11-12T22:49:06.492Z,10.63
2022-11-12T22:51:35.784Z,11.30
2022-11-12T22:54:06.343Z,11.03
2022-11-12T22:56:35.170Z,10.60
2022-11-12T22:59:05.006Z,11.30
2022-11-12T23:01:36.533Z,10.23
2022-11-12T23:04:07.874Z,10.30
2022-11-12T23:06:36.846Z,10.27
2022-11-12T23:09:05.673Z,10.07
2022-11-12T23:11:34.603Z,9.97
2022-11-12T23:14:03.070Z,10.37
2022-11-12T23:16:32.080Z,9.47
2022-11-12T23:19:01.986Z,8.93
2022-11-12T23:21:31.354Z,10.00
2022-11-12T23:24:00.373Z,9.80
2022-11-12T23:26:31.343Z,10.13
2022-11-12T23:28:59.964Z,9.37
2022-11-12T23:31:30.706Z,9.83
2022-11-12T23:34:01.840Z,9.73
2022-11-12T23:36:31.257Z,8.90
2022-11-12T23:39:00.941Z,8.93
2022-11-12T23:41:29.607Z,9.20
2022-11-12T23:43:59.137Z,9.17
2022-11-12T23:46:27.577Z,9.50
2022-11-12T23:48:55.954Z,9.50
2022-11-12T23:51:25.988Z,9.80
2022-11-12T23:53:54.334Z,9.90
2022-11-12T23:56:22.782Z,8.90
2022-11-12T23:58:54.467Z,8.07
